Overton RPC :: 150-B

liberation: 2021-10-02  07:30     latitude: 34.254868     longitude: -85.871559 62 birds
# LOFT PRING MILES ARRIVAL SPEED ToWin
1 VALHALLA LOFTS IF21-VALH-0198 152.211 2021-10-02 10:39:07.627 1416.460 00:00:00
2 VALHALLA LOFTS IF21-VALH-0112 152.211 2021-10-02 10:39:08.417 1416.361 00:00:01
3 VALHALLA LOFTS IF21-VALH-0194 152.211 2021-10-02 10:39:14.047 1415.659 00:00:06
4 VALHALLA LOFTS IF21-E-1445 152.211 2021-10-02 10:39:17.872 1415.182 00:00:10
5 VALHALLA LOFTS IF21-E-1446 152.211 2021-10-02 10:39:26.206 1414.144 00:00:19
6 VALHALLA LOFTS IF21-VALH-0154 152.211 2021-10-02 10:39:30.198 1413.648 00:00:23
7 VALHALLA LOFTS IF21-VALH-0196 152.211 2021-10-02 10:39:30.943 1413.555 00:00:23
8 VALHALLA LOFTS IF21-VALH-0147 152.211 2021-10-02 10:39:31.876 1413.439 00:00:24
9 VALHALLA LOFTS IF21-VALH-0116 152.211 2021-10-02 10:39:33.098 1413.287 00:00:25
10 VALHALLA LOFTS IF21-VALH-0129 152.211 2021-10-02 10:39:36.391 1412.878 00:00:29
11 VALHALLA LOFTS AU21-BREW-2151 152.211 2021-10-02 10:39:39.227 1412.526 00:00:32
12 VALHALLA LOFTS AU21-ARPU-8991 152.211 2021-10-02 10:39:52.052 1410.936 00:00:44
13 VALHALLA LOFTS IF21-E-1500 152.211 2021-10-02 10:39:56.042 1410.442 00:00:48
14 VALHALLA LOFTS IF21-VALH-0186 152.211 2021-10-02 10:45:09.700 1372.662 00:06:02
15 VALHALLA LOFTS IF21-VALH-0192 152.211 2021-10-02 10:45:30.693 1370.205 00:06:23
16 VALHALLA LOFTS IF21-VALH-0145 152.211 2021-10-02 10:45:34.401 1369.772 00:06:27
17 HONEY FARM LOFT IF21-FOYS-5476 136.527 2021-10-02 10:25:43.672 1367.382 00:06:05
18 VALHALLA LOFTS IF21-E-1442 152.211 2021-10-02 10:45:58.382 1366.978 00:06:51
19 HONEY FARM LOFT IF21-FOYS-5488 136.527 2021-10-02 10:25:49.904 1366.574 00:06:12
20 HONEY FARM LOFT AU21-NASH-9559 136.527 2021-10-02 10:25:52.945 1366.180 00:06:15
21 VALHALLA LOFTS IF21-VALH-0111 152.211 2021-10-02 10:46:06.270 1366.062 00:06:59
22 MONTEJANO LOFT AU21-ARPU-8992 133.598 2021-10-02 10:22:14.016 1365.192 00:06:14
23 MONTEJANO LOFT IF21-E-1316 133.598 2021-10-02 10:22:24.949 1363.749 00:06:25
24 VALHALLA LOFTS IF21-VALH-0151 152.211 2021-10-02 10:47:03.432 1359.458 00:07:56
25 VALHALLA LOFTS IF21-E-1412 152.211 2021-10-02 10:48:43.413 1348.058 00:09:36
26 VALHALLA LOFTS AU21-ARPU-8999 152.211 2021-10-02 10:48:44.385 1347.948 00:09:37
27 VALHALLA LOFTS IF21-VALH-0101 152.211 2021-10-02 10:49:02.049 1345.955 00:09:54
28 VALHALLA LOFTS AU21-POP-0536 152.211 2021-10-02 10:49:43.248 1341.327 00:10:36
29 VALHALLA LOFTS IF21-E-1591 152.211 2021-10-02 10:54:33.963 1309.557 00:15:26
30 PHILBETTER LOFT IF21-E-1551 147.897 2021-10-02 10:49:13.572 1306.552 00:15:28
31 PHILBETTER LOFT IF21-E-1553 147.897 2021-10-02 10:49:16.179 1306.267 00:15:30
32 VALHALLA LOFTS IF21-VALH-0118 152.211 2021-10-02 10:56:45.702 1295.651 00:17:38
33 LET IT GO LOFT IF21-ORP-0409 155.558 2021-10-02 11:05:17.463 1271.687 00:22:00
34 VALHALLA LOFTS IF21-VALH-0107 152.211 2021-10-02 11:20:00.995 1164.659 00:40:53
35 VALHALLA LOFTS IF21-E-1499 152.211 2021-10-02 11:23:53.559 1145.358 00:44:46
36 VALHALLA LOFTS IF21-VALH-0130 152.211 2021-10-02 11:23:55.610 1145.191 00:44:48
37 VALHALLA LOFTS IF21-E-1450 152.211 2021-10-02 11:24:33.723 1142.090 00:45:26
38 PHILBETTER LOFT IF21-E-1560 147.897 2021-10-02 11:26:34.016 1100.321 00:52:48
39 VALHALLA LOFTS IF21-VALH-0105 152.211 2021-10-02 11:33:32.166 1100.005 00:54:25
40 VALHALLA LOFTS IF21-E-1592 152.211 2021-10-02 11:33:41.355 1099.314 00:54:34
41 VALHALLA LOFTS IF21-VALH-0183 152.211 2021-10-02 11:36:33.833 1086.497 00:57:26
42 VALHALLA LOFTS IF21-VALH-0146 152.211 2021-10-02 11:36:38.318 1086.168 00:57:31
43 VALHALLA LOFTS IF21-E-1444 152.211 2021-10-02 11:47:26.412 1040.595 01:08:19
44 PHILBETTER LOFT AU21-ARPU-8998 147.897 2021-10-02 11:46:15.459 1015.772 01:12:29
45 PHILBETTER LOFT IF21-E-1561 147.897 2021-10-02 11:52:15.975 992.501 01:18:30
46 PHILBETTER LOFT AU21-ARPU-8973 147.897 2021-10-02 11:52:24.779 991.946 01:18:39
47 PHILBETTER LOFT IF21-VALH-0191 147.897 2021-10-02 12:03:05.139 953.179 01:29:19
48 HONEY FARM LOFT AU21-NASH-9544 136.527 2021-10-02 11:42:45.599 950.653 01:23:07
49 VALHALLA LOFTS IF21-E-1497 152.211 2021-10-02 12:23:35.140 912.480 01:44:28
50 VALHALLA LOFTS AU21-BREW-2154 152.211 2021-10-02 12:45:58.055 847.843 02:06:50
51 PHILBETTER LOFT IF21-E-1556 147.897 2021-10-02 13:19:16.138 745.269 02:45:30
52 VALHALLA LOFTS IF21-E-1600 152.211 2021-10-02 14:24:28.038 646.350 03:45:20
53 LET IT GO LOFT IF21-E-1405 155.558 2021-10-02 14:55:15.334 614.889 04:11:58
HONEY FARM LOFT IF21-FOYS-5486 0 0000-00-00 00:00:00.000 0.000 00:00:00
HONEY FARM LOFT IF21-ORP-0412 0 0000-00-00 00:00:00.000 0.000 00:00:00
LET IT GO LOFT IF21-ORP-0467 0 0000-00-00 00:00:00.000 0.000 00:00:00
LET IT GO LOFT IF21-ORP-0479 0 0000-00-00 00:00:00.000 0.000 00:00:00
MONTEJANO LOFT IF21-E-1465 0 0000-00-00 00:00:00.000 0.000 00:00:00
VALHALLA LOFTS IF21-E-1416 0 0000-00-00 00:00:00.000 0.000 00:00:00
VALHALLA LOFTS IF21-VALH-0102 0 0000-00-00 00:00:00.000 0.000 00:00:00
VALHALLA LOFTS IF21-VALH-0123 0 0000-00-00 00:00:00.000 0.000 00:00:00
VALHALLA LOFTS IF21-VALH-0177 0 0000-00-00 00:00:00.000 0.000 00:00:00